Terminal Aerodrome Forecast
Issued by NWS Spokane, WA

Home | Current Version | Previous Version | Text Only | Print | Product List | Glossary On
Versions: 1 2 3 4 5 6 7 8 9 10 11 12 13 14 15 16 17 18 19 20 21 22 23 24 25 26 27 28 29 30 31 32 33 34 35 36 37 38 39 40 41 42 43 44 45 46 47 48 49 50
000
FTUS46 KOTX 242329
TAFLWS
TAF
KLWS 242329Z 2500/2524 24004KT P6SM VCSH OVC027
     FM250600 24003KT 4SM BR VCSH SCT006 OVC012
     FM251200 23002KT P6SM OVC022
     FM252100 28003KT P6SM SCT250=

USA.gov is the U.S. government's official web portal to all federal, state and local government web resources and services.